createdAt,value
2022-08-27T00:00:28.343Z,81.26
2022-08-27T00:01:29.895Z,81.56
2022-08-27T00:02:35.354Z,81.58
2022-08-27T00:03:37.529Z,81.07
2022-08-27T00:04:39.186Z,81.03
2022-08-27T00:05:41.644Z,81.36
2022-08-27T00:06:43.468Z,80.58
2022-08-27T00:07:48.358Z,80.17
2022-08-27T00:08:50.668Z,80.62
2022-08-27T00:09:52.158Z,80.68
2022-08-27T00:10:53.664Z,80.96
2022-08-27T00:11:56.463Z,80.85
2022-08-27T00:12:57.950Z,80.45
2022-08-27T00:14:00.978Z,80.61
2022-08-27T00:15:03.253Z,80.53
2022-08-27T00:16:06.944Z,80.89
2022-08-27T00:17:08.839Z,80.93
2022-08-27T00:18:10.613Z,80.87
2022-08-27T00:19:12.576Z,80.72
2022-08-27T00:20:17.653Z,80.69
2022-08-27T00:21:19.204Z,80.37
2022-08-27T00:22:20.667Z,80.54
2022-08-27T00:23:22.559Z,80.58
2022-08-27T00:24:25.612Z,80.74
2022-08-27T00:25:27.637Z,81.28
2022-08-27T00:26:29.307Z,80.95
2022-08-27T00:27:31.143Z,81.15
2022-08-27T00:28:33.764Z,81.06
2022-08-27T00:29:35.349Z,81.35
2022-08-27T00:30:38.360Z,81.16
2022-08-27T00:31:41.050Z,81.12
2022-08-27T00:32:43.091Z,81.23
2022-08-27T00:33:45.451Z,81.00
2022-08-27T00:34:46.966Z,81.03
2022-08-27T00:35:48.581Z,81.24
2022-08-27T00:36:50.596Z,81.33
2022-08-27T00:37:52.079Z,80.63
2022-08-27T00:38:54.333Z,80.92
2022-08-27T00:39:55.917Z,81.13
2022-08-27T00:40:58.155Z,81.29
2022-08-27T00:42:01.117Z,81.59
2022-08-27T00:43:03.375Z,81.62
2022-08-27T00:44:06.795Z,80.71
2022-08-27T00:45:09.458Z,80.99
2022-08-27T00:46:23.302Z,80.82
2022-08-27T00:47:27.776Z,80.85
2022-08-27T00:48:35.174Z,81.30
2022-08-27T00:50:06.018Z,80.99
2022-08-27T00:51:07.555Z,80.90
2022-08-27T00:52:17.781Z,81.15
2022-08-27T00:53:25.394Z,81.12
2022-08-27T00:54:29.116Z,81.08
2022-08-27T00:55:35.909Z,81.08
2022-08-27T00:56:48.752Z,81.05
2022-08-27T00:58:15.793Z,80.91
2022-08-27T00:59:18.836Z,80.99
2022-08-27T01:00:21.161Z,80.78
2022-08-27T01:01:28.668Z,80.74
2022-08-27T01:02:30.810Z,80.97
2022-08-27T01:03:33.063Z,81.08
2022-08-27T01:04:36.728Z,80.82
2022-08-27T01:05:39.245Z,80.21
2022-08-27T01:06:40.721Z,80.18
2022-08-27T01:07:46.871Z,80.65
2022-08-27T01:08:53.409Z,80.66
2022-08-27T01:09:57.809Z,81.09
2022-08-27T01:11:00.695Z,81.07
2022-08-27T01:12:03.646Z,81.34
2022-08-27T01:13:18.864Z,81.13
2022-08-27T01:14:20.495Z,81.40
2022-08-27T01:15:25.004Z,81.33
2022-08-27T01:16:32.835Z,81.09
2022-08-27T01:17:37.032Z,81.18
2022-08-27T01:18:39.292Z,80.88
2022-08-27T01:19:54.174Z,81.29
2022-08-27T01:21:02.115Z,81.39
2022-08-27T01:22:23.126Z,81.08
2022-08-27T01:23:36.952Z,81.31
2022-08-27T01:24:50.223Z,81.25
2022-08-27T01:25:52.221Z,81.04
2022-08-27T01:26:54.050Z,81.19
2022-08-27T01:27:59.246Z,81.08
2022-08-27T01:29:00.996Z,80.99
2022-08-27T01:30:03.288Z,80.97
2022-08-27T01:31:06.550Z,80.98
2022-08-27T01:32:23.703Z,80.96
2022-08-27T01:33:25.143Z,81.28
2022-08-27T01:34:26.789Z,81.38
2022-08-27T01:35:28.817Z,81.51
2022-08-27T01:36:31.969Z,81.55
2022-08-27T01:37:34.888Z,81.95
2022-08-27T01:38:36.465Z,81.79
2022-08-27T01:39:39.835Z,81.56
2022-08-27T01:40:42.955Z,81.57
2022-08-27T01:41:46.671Z,81.26
2022-08-27T01:42:55.595Z,81.67
2022-08-27T01:43:58.232Z,81.50
2022-08-27T01:45:08.394Z,81.25
2022-08-27T01:46:10.147Z,81.93
2022-08-27T01:47:11.936Z,81.38
2022-08-27T01:48:13.467Z,81.58
2022-08-27T01:49:14.999Z,81.64
2022-08-27T01:50:20.934Z,81.32
2022-08-27T01:51:22.581Z,81.09
2022-08-27T01:52:27.100Z,81.23
2022-08-27T01:53:28.756Z,81.21
2022-08-27T01:54:32.251Z,81.25
2022-08-27T01:55:34.681Z,81.63
2022-08-27T01:56:36.327Z,81.42
2022-08-27T01:57:39.832Z,81.71
2022-08-27T01:58:41.352Z,81.45
2022-08-27T01:59:42.898Z,81.73
2022-08-27T02:00:51.957Z,81.65
2022-08-27T02:01:58.630Z,81.03
2022-08-27T02:03:00.675Z,81.08
2022-08-27T02:04:02.182Z,81.33
2022-08-27T02:05:04.567Z,81.48
2022-08-27T02:06:09.587Z,81.13
2022-08-27T02:07:11.469Z,80.85
2022-08-27T02:08:16.014Z,81.23
2022-08-27T02:09:17.687Z,81.68
2022-08-27T02:10:25.071Z,81.81
2022-08-27T02:11:27.336Z,81.46
2022-08-27T02:12:28.802Z,81.22
2022-08-27T02:13:30.419Z,80.63
2022-08-27T02:14:32.072Z,80.23
2022-08-27T02:15:35.737Z,79.66
2022-08-27T02:16:37.326Z,79.36
2022-08-27T02:17:47.938Z,79.84
2022-08-27T02:18:49.603Z,80.08
2022-08-27T02:19:51.079Z,80.71
2022-08-27T02:20:52.986Z,81.10
2022-08-27T02:21:55.151Z,81.16
2022-08-27T02:22:57.182Z,80.97
2022-08-27T02:23:58.711Z,80.73
2022-08-27T02:25:00.273Z,80.26
2022-08-27T02:26:02.543Z,80.50
2022-08-27T02:27:04.183Z,80.47
2022-08-27T02:28:06.946Z,80.37
2022-08-27T02:29:08.621Z,80.13
2022-08-27T02:30:13.677Z,80.26
2022-08-27T02:31:16.477Z,80.21
2022-08-27T02:32:31.120Z,80.53
2022-08-27T02:33:34.571Z,80.81
2022-08-27T02:34:36.108Z,80.86
2022-08-27T02:35:43.105Z,80.87
2022-08-27T02:36:45.025Z,80.86
2022-08-27T02:37:47.105Z,80.86
2022-08-27T02:38:48.982Z,80.71
2022-08-27T02:39:50.535Z,81.44
2022-08-27T02:40:54.071Z,81.70
2022-08-27T02:41:56.100Z,81.72
2022-08-27T02:42:57.568Z,81.74
2022-08-27T02:44:01.188Z,81.55
2022-08-27T02:45:04.100Z,81.61
2022-08-27T02:46:05.868Z,81.46
2022-08-27T02:47:07.713Z,81.67
2022-08-27T02:48:10.022Z,81.96
2022-08-27T02:49:11.733Z,81.87
2022-08-27T02:50:14.476Z,81.42
2022-08-27T02:51:16.304Z,81.17
2022-08-27T02:52:24.201Z,80.74
2022-08-27T02:53:28.483Z,80.91
2022-08-27T02:54:30.997Z,81.55
2022-08-27T02:55:33.287Z,81.86
2022-08-27T02:56:35.751Z,81.89
2022-08-27T02:57:37.491Z,81.47
2022-08-27T02:58:39.388Z,80.73
2022-08-27T02:59:40.933Z,80.87
2022-08-27T03:00:43.958Z,81.45
2022-08-27T03:01:46.254Z,81.32
2022-08-27T03:02:48.387Z,81.88
2022-08-27T03:03:50.033Z,81.63
2022-08-27T03:04:51.524Z,82.04
2022-08-27T03:05:53.044Z,82.13
2022-08-27T03:06:55.656Z,82.24
2022-08-27T03:07:59.453Z,82.05
2022-08-27T03:09:00.979Z,82.15
2022-08-27T03:10:03.052Z,82.32
2022-08-27T03:11:07.050Z,82.58
2022-08-27T03:12:09.562Z,82.52
2022-08-27T03:13:11.037Z,82.68
2022-08-27T03:14:12.910Z,82.70
2022-08-27T03:15:17.553Z,82.21
2022-08-27T03:16:19.270Z,81.82
2022-08-27T03:17:39.820Z,81.76
2022-08-27T03:18:41.757Z,82.19
2022-08-27T03:19:43.958Z,82.60
2022-08-27T03:20:56.324Z,82.70
2022-08-27T03:21:58.114Z,82.78
2022-08-27T03:23:00.815Z,82.71
2022-08-27T03:24:11.329Z,82.95
2022-08-27T03:25:13.637Z,83.15
2022-08-27T03:26:15.360Z,82.78
2022-08-27T03:27:17.178Z,82.38
2022-08-27T03:28:23.297Z,82.62
2022-08-27T03:29:25.226Z,82.50
2022-08-27T03:30:26.819Z,82.46
2022-08-27T03:31:29.399Z,82.40
2022-08-27T03:32:31.701Z,82.74
2022-08-27T03:33:36.544Z,82.13
2022-08-27T03:34:38.035Z,81.82
2022-08-27T03:35:39.512Z,82.24
2022-08-27T03:36:40.971Z,82.24
2022-08-27T03:37:43.209Z,81.62
2022-08-27T03:38:44.679Z,81.52
2022-08-27T03:39:46.298Z,81.65
2022-08-27T03:40:47.992Z,81.81
2022-08-27T03:41:54.982Z,81.75
2022-08-27T03:42:57.496Z,81.22
2022-08-27T03:43:59.373Z,81.34
2022-08-27T03:45:01.102Z,81.02
2022-08-27T03:46:02.946Z,81.09
2022-08-27T03:47:04.836Z,81.37
2022-08-27T03:48:06.368Z,81.19
2022-08-27T03:49:07.900Z,81.19
2022-08-27T03:50:09.870Z,81.13
2022-08-27T03:51:13.958Z,81.22
2022-08-27T03:52:15.938Z,80.71
2022-08-27T03:53:20.359Z,80.53
2022-08-27T03:54:21.925Z,80.41
2022-08-27T03:55:23.556Z,80.62
2022-08-27T03:56:25.055Z,80.77
2022-08-27T03:57:26.880Z,81.13
2022-08-27T03:58:28.542Z,81.08
2022-08-27T03:59:30.336Z,80.46
2022-08-27T04:00:31.848Z,80.46
2022-08-27T04:01:33.426Z,81.05
2022-08-27T04:02:35.315Z,81.54
2022-08-27T04:03:37.639Z,81.91
2022-08-27T04:04:39.099Z,82.02
2022-08-27T04:05:42.482Z,82.63
2022-08-27T04:06:47.351Z,82.80
2022-08-27T04:07:49.837Z,82.67
2022-08-27T04:08:52.311Z,82.66
2022-08-27T04:09:53.846Z,82.00
2022-08-27T04:10:55.607Z,82.35
2022-08-27T04:11:57.073Z,82.27
2022-08-27T04:12:58.864Z,82.44
2022-08-27T04:14:00.967Z,82.40
2022-08-27T04:15:02.664Z,81.90
2022-08-27T04:16:05.437Z,82.11
2022-08-27T04:17:06.876Z,82.39
2022-08-27T04:18:08.723Z,82.31
2022-08-27T04:19:11.045Z,81.91
2022-08-27T04:20:34.651Z,81.80
2022-08-27T04:21:35.830Z,82.03
2022-08-27T04:22:37.816Z,81.70
2022-08-27T04:23:40.758Z,81.81
2022-08-27T04:24:43.008Z,81.70
2022-08-27T04:25:45.446Z,81.71
2022-08-27T04:26:47.783Z,82.24
2022-08-27T04:27:49.571Z,82.18
2022-08-27T04:28:51.040Z,82.00
2022-08-27T04:30:00.369Z,81.81
2022-08-27T04:31:03.480Z,81.87
2022-08-27T04:32:05.148Z,82.00
2022-08-27T04:33:07.516Z,81.93
2022-08-27T04:34:09.041Z,82.29
2022-08-27T04:35:11.714Z,82.17
2022-08-27T04:36:13.887Z,81.89
2022-08-27T04:37:15.334Z,81.59
2022-08-27T04:38:23.261Z,81.76
2022-08-27T04:39:26.982Z,81.42
2022-08-27T04:40:48.422Z,80.40
2022-08-27T04:41:51.672Z,80.89
2022-08-27T04:42:53.230Z,81.33
2022-08-27T04:43:57.812Z,81.69
2022-08-27T04:44:59.677Z,81.01
2022-08-27T04:46:01.468Z,81.14
2022-08-27T04:47:05.015Z,81.95
2022-08-27T04:48:06.937Z,81.71
2022-08-27T04:49:12.580Z,82.16
2022-08-27T04:50:15.954Z,82.35
2022-08-27T04:51:18.458Z,82.46
2022-08-27T04:52:21.457Z,82.39
2022-08-27T04:53:23.796Z,82.58
2022-08-27T04:54:32.862Z,82.33
2022-08-27T04:55:34.627Z,82.47
2022-08-27T04:56:37.904Z,82.32
2022-08-27T04:57:39.368Z,82.42
2022-08-27T04:58:41.676Z,82.50
2022-08-27T04:59:43.233Z,82.66
2022-08-27T05:00:48.455Z,82.94
2022-08-27T05:01:51.284Z,82.74
2022-08-27T05:02:52.830Z,82.97
2022-08-27T05:03:55.521Z,83.20
2022-08-27T05:04:57.016Z,83.05
2022-08-27T05:06:04.936Z,82.95
2022-08-27T05:07:08.747Z,82.88
2022-08-27T05:08:14.613Z,82.77
2022-08-27T05:09:18.396Z,83.01
2022-08-27T05:10:21.414Z,83.39
2022-08-27T05:11:26.505Z,83.36
2022-08-27T05:12:28.095Z,82.94
2022-08-27T05:13:29.982Z,83.00
2022-08-27T05:14:32.984Z,83.02
2022-08-27T05:15:35.579Z,82.95
2022-08-27T05:16:37.492Z,82.71
2022-08-27T05:17:39.130Z,82.81
2022-08-27T05:18:47.836Z,82.39
2022-08-27T05:19:50.235Z,82.54
2022-08-27T05:20:52.072Z,82.49
2022-08-27T05:21:54.014Z,82.78
2022-08-27T05:22:55.866Z,82.79
2022-08-27T05:24:00.165Z,82.75
2022-08-27T05:25:02.007Z,82.67
2022-08-27T05:26:03.594Z,82.69
2022-08-27T05:27:05.394Z,82.87
2022-08-27T05:28:06.991Z,83.10
2022-08-27T05:29:08.648Z,83.00
2022-08-27T05:30:10.709Z,82.76
2022-08-27T05:31:14.159Z,81.97
2022-08-27T05:32:15.876Z,81.77
2022-08-27T05:33:21.421Z,80.98
2022-08-27T05:34:27.132Z,81.38
2022-08-27T05:35:29.205Z,81.71
2022-08-27T05:36:33.143Z,81.88
2022-08-27T05:37:35.577Z,81.67
2022-08-27T05:38:37.054Z,81.28
2022-08-27T05:39:38.968Z,81.26
2022-08-27T05:40:41.567Z,81.34
2022-08-27T05:41:43.239Z,80.97
2022-08-27T05:42:46.599Z,81.33
2022-08-27T05:43:56.082Z,81.75
2022-08-27T05:44:59.450Z,81.85
2022-08-27T05:46:05.731Z,81.94
2022-08-27T05:47:07.504Z,82.03
2022-08-27T05:48:12.032Z,82.05
2022-08-27T05:49:14.412Z,81.65
2022-08-27T05:50:18.757Z,81.61
2022-08-27T05:51:28.551Z,81.56
2022-08-27T05:52:30.010Z,81.69
2022-08-27T05:53:31.439Z,81.55
2022-08-27T05:54:34.175Z,81.76
2022-08-27T05:55:43.642Z,82.06
2022-08-27T05:56:46.168Z,81.38
2022-08-27T05:57:47.691Z,81.21
2022-08-27T05:59:08.837Z,81.60
2022-08-27T06:00:29.340Z,81.68
2022-08-27T06:01:34.800Z,82.20
2022-08-27T06:02:37.316Z,82.15
2022-08-27T06:03:39.005Z,82.38
2022-08-27T06:04:41.174Z,82.08
2022-08-27T06:05:42.787Z,82.33
2022-08-27T06:06:45.486Z,82.34
2022-08-27T06:07:47.038Z,82.02
2022-08-27T06:08:49.288Z,81.84
2022-08-27T06:09:51.153Z,82.07
2022-08-27T06:10:53.095Z,82.25
2022-08-27T06:11:56.057Z,81.52
2022-08-27T06:12:57.586Z,81.61
2022-08-27T06:13:59.603Z,81.33
2022-08-27T06:15:02.148Z,81.27
2022-08-27T06:16:06.762Z,81.85
2022-08-27T06:17:08.446Z,81.84
2022-08-27T06:18:09.990Z,81.97
2022-08-27T06:19:12.280Z,82.14
2022-08-27T06:20:16.469Z,82.13
2022-08-27T06:21:24.228Z,81.97
2022-08-27T06:22:26.232Z,81.77
2022-08-27T06:23:28.848Z,81.12
2022-08-27T06:24:30.343Z,80.73
2022-08-27T06:25:32.923Z,81.17
2022-08-27T06:26:34.682Z,81.67
2022-08-27T06:27:36.231Z,81.78
2022-08-27T06:28:41.307Z,81.83
2022-08-27T06:29:44.388Z,81.63
2022-08-27T06:30:46.016Z,82.02
2022-08-27T06:31:50.458Z,82.03
2022-08-27T06:32:51.962Z,82.18
2022-08-27T06:33:58.131Z,82.50
2022-08-27T06:35:02.566Z,82.37
2022-08-27T06:36:07.099Z,81.56
2022-08-27T06:37:08.962Z,81.40
2022-08-27T06:38:10.577Z,81.70
2022-08-27T06:39:13.830Z,81.13
2022-08-27T06:40:16.305Z,80.66
2022-08-27T06:41:23.948Z,80.38
2022-08-27T06:42:26.814Z,80.17
2022-08-27T06:43:28.290Z,81.00
2022-08-27T06:44:29.824Z,81.23
2022-08-27T06:45:31.607Z,81.57
2022-08-27T06:46:33.172Z,81.83
2022-08-27T06:47:34.719Z,81.94
2022-08-27T06:48:36.575Z,82.00
2022-08-27T06:49:40.857Z,81.91
2022-08-27T06:50:44.170Z,82.30
2022-08-27T06:51:47.448Z,82.38
2022-08-27T06:52:48.955Z,82.13
2022-08-27T06:53:50.822Z,82.14
2022-08-27T06:54:52.254Z,82.22
2022-08-27T06:55:54.050Z,82.12
2022-08-27T06:56:59.014Z,81.53
2022-08-27T06:58:00.460Z,81.59
2022-08-27T06:59:11.716Z,81.74
2022-08-27T07:00:14.000Z,81.79
2022-08-27T07:01:23.279Z,81.67
2022-08-27T07:02:24.837Z,81.88
2022-08-27T07:03:26.458Z,81.88
2022-08-27T07:04:32.050Z,82.04
2022-08-27T07:05:36.474Z,81.78
2022-08-27T07:06:39.880Z,81.90
2022-08-27T07:07:46.703Z,81.81
2022-08-27T07:08:53.296Z,81.56
2022-08-27T07:09:55.260Z,81.52
2022-08-27T07:10:57.545Z,81.72
2022-08-27T07:12:00.096Z,81.51
2022-08-27T07:13:01.803Z,81.76
2022-08-27T07:14:04.832Z,81.69
2022-08-27T07:15:06.712Z,82.07
2022-08-27T07:16:12.625Z,81.90
2022-08-27T07:17:16.389Z,82.12
2022-08-27T07:18:18.065Z,82.34
2022-08-27T07:19:19.639Z,81.65
2022-08-27T07:20:22.964Z,80.94
2022-08-27T07:21:25.154Z,79.89
2022-08-27T07:22:26.996Z,79.93
2022-08-27T07:23:28.511Z,80.02
2022-08-27T07:24:30.163Z,79.98
2022-08-27T07:25:32.808Z,79.63
2022-08-27T07:26:37.293Z,79.67
2022-08-27T07:27:40.290Z,80.25
2022-08-27T07:28:43.509Z,81.11
2022-08-27T07:29:44.990Z,81.33
2022-08-27T07:30:46.535Z,81.12
2022-08-27T07:31:48.467Z,80.86
2022-08-27T07:32:49.934Z,81.07
2022-08-27T07:33:53.138Z,80.99
2022-08-27T07:34:54.825Z,81.17
2022-08-27T07:35:56.836Z,81.33
2022-08-27T07:36:58.656Z,81.21
2022-08-27T07:38:00.119Z,81.13
2022-08-27T07:39:02.056Z,80.83
2022-08-27T07:40:09.909Z,80.06
2022-08-27T07:41:14.243Z,79.79
2022-08-27T07:42:34.700Z,79.75
2022-08-27T07:43:56.255Z,79.70
2022-08-27T07:44:57.867Z,79.14
2022-08-27T07:46:02.157Z,78.68
2022-08-27T07:47:03.973Z,78.94
2022-08-27T07:48:05.429Z,78.96
2022-08-27T07:49:07.071Z,79.44
2022-08-27T07:50:08.947Z,79.60
2022-08-27T07:51:19.220Z,79.81
2022-08-27T07:52:24.745Z,79.88
2022-08-27T07:53:28.021Z,80.42
2022-08-27T07:54:29.557Z,80.73
2022-08-27T07:55:31.275Z,80.80
2022-08-27T07:56:35.349Z,80.66
2022-08-27T07:57:37.465Z,80.35
2022-08-27T07:58:39.713Z,78.98
2022-08-27T07:59:41.305Z,79.95
2022-08-27T08:00:44.861Z,80.09
2022-08-27T08:01:48.942Z,80.07
2022-08-27T08:02:51.359Z,80.47
2022-08-27T08:03:52.867Z,80.66
2022-08-27T08:04:54.302Z,80.87
2022-08-27T08:05:57.230Z,80.98
2022-08-27T08:06:58.819Z,80.50
2022-08-27T08:08:00.710Z,80.56
2022-08-27T08:09:02.166Z,80.48
2022-08-27T08:10:07.821Z,80.95
2022-08-27T08:11:12.339Z,80.73
2022-08-27T08:12:14.413Z,80.60
2022-08-27T08:13:18.362Z,80.45
2022-08-27T08:14:20.379Z,80.73
2022-08-27T08:15:21.898Z,80.04
2022-08-27T08:16:29.586Z,80.46
2022-08-27T08:17:34.399Z,80.60
2022-08-27T08:18:36.822Z,79.96
2022-08-27T08:19:38.875Z,79.60
2022-08-27T08:20:57.667Z,78.91
2022-08-27T08:22:04.949Z,78.02
2022-08-27T08:23:09.882Z,78.42
2022-08-27T08:24:12.484Z,78.35
2022-08-27T08:25:14.159Z,78.40
2022-08-27T08:26:16.287Z,78.23
2022-08-27T08:27:18.121Z,78.36
2022-08-27T08:28:19.596Z,77.98
2022-08-27T08:29:21.696Z,78.29
2022-08-27T08:30:23.450Z,78.11
2022-08-27T08:31:25.085Z,78.05
2022-08-27T08:32:26.606Z,77.10
2022-08-27T08:33:29.154Z,77.12
2022-08-27T08:34:37.295Z,77.57
2022-08-27T08:35:41.030Z,78.02
2022-08-27T08:36:43.058Z,78.04
2022-08-27T08:37:47.729Z,78.26
2022-08-27T08:38:50.893Z,78.10
2022-08-27T08:39:53.705Z,77.44
2022-08-27T08:40:55.530Z,77.70
2022-08-27T08:41:59.660Z,77.77
2022-08-27T08:43:02.408Z,78.00
2022-08-27T08:44:08.682Z,77.92
2022-08-27T08:45:14.371Z,78.19
2022-08-27T08:46:25.458Z,78.46
2022-08-27T08:47:33.154Z,78.88
2022-08-27T08:48:36.680Z,78.57
2022-08-27T08:50:08.429Z,77.84
2022-08-27T08:51:09.819Z,77.56
2022-08-27T08:52:40.079Z,77.43
2022-08-27T08:53:51.292Z,77.78
2022-08-27T08:54:56.904Z,77.86
2022-08-27T08:56:03.436Z,78.14
2022-08-27T08:57:13.987Z,78.26
2022-08-27T08:58:25.334Z,77.82
2022-08-27T08:59:38.267Z,77.90
2022-08-27T09:00:42.656Z,77.67
2022-08-27T09:01:45.395Z,77.71
2022-08-27T09:02:50.500Z,77.47
2022-08-27T09:04:02.568Z,77.79
2022-08-27T09:05:07.912Z,77.66
2022-08-27T09:06:18.616Z,77.07
2022-08-27T09:07:38.641Z,76.96
2022-08-27T09:08:43.473Z,76.89
2022-08-27T09:09:58.556Z,76.34
2022-08-27T09:11:23.955Z,76.03
2022-08-27T09:12:30.090Z,76.01
2022-08-27T09:13:40.202Z,75.48
2022-08-27T09:14:50.474Z,76.21
2022-08-27T09:15:56.287Z,75.90
2022-08-27T09:17:00.411Z,76.11
2022-08-27T09:18:14.352Z,76.61
2022-08-27T09:19:16.219Z,76.91
2022-08-27T09:20:25.917Z,77.32
2022-08-27T09:21:44.957Z,76.86
2022-08-27T09:23:14.837Z,76.34
2022-08-27T09:24:53.929Z,76.36
2022-08-27T09:25:55.708Z,76.97
2022-08-27T09:26:57.340Z,76.92
2022-08-27T09:28:02.368Z,76.92
2022-08-27T09:29:16.837Z,77.15
2022-08-27T09:30:30.740Z,76.08
2022-08-27T09:31:37.978Z,75.36
2022-08-27T09:32:40.685Z,75.73
2022-08-27T09:33:55.937Z,74.79
2022-08-27T09:35:01.244Z,75.08
2022-08-27T09:36:08.567Z,75.30
2022-08-27T09:37:20.488Z,75.04
2022-08-27T09:38:29.743Z,75.16
2022-08-27T09:39:46.991Z,75.31
2022-08-27T09:40:52.327Z,75.40
2022-08-27T09:41:54.041Z,75.22
2022-08-27T09:43:17.290Z,75.36
2022-08-27T09:44:20.802Z,75.54
2022-08-27T09:45:27.299Z,75.45
2022-08-27T09:46:29.471Z,75.38
2022-08-27T09:47:43.743Z,75.08
2022-08-27T09:48:45.272Z,75.15
2022-08-27T09:49:47.469Z,75.33
2022-08-27T09:50:56.279Z,75.73
2022-08-27T09:51:57.923Z,75.37
2022-08-27T09:53:01.028Z,76.29
2022-08-27T09:54:04.288Z,76.07
2022-08-27T09:55:06.986Z,76.17
2022-08-27T09:56:11.396Z,75.96
2022-08-27T09:57:26.117Z,75.00
2022-08-27T09:58:44.170Z,75.26
2022-08-27T09:59:54.926Z,74.79
2022-08-27T10:01:05.542Z,74.47
2022-08-27T10:02:15.505Z,73.53
2022-08-27T10:03:22.552Z,73.33
2022-08-27T10:04:50.074Z,73.27
2022-08-27T10:05:54.267Z,73.11
2022-08-27T10:06:56.125Z,73.63
2022-08-27T10:08:04.536Z,73.94
2022-08-27T10:09:16.572Z,73.66
2022-08-27T10:10:26.938Z,74.33
2022-08-27T10:11:38.342Z,74.23
2022-08-27T10:12:48.460Z,74.54
2022-08-27T10:14:01.425Z,74.14
2022-08-27T10:15:05.506Z,74.04
2022-08-27T10:16:24.450Z,74.22
2022-08-27T10:17:32.071Z,73.67
2022-08-27T10:18:44.826Z,73.59
2022-08-27T10:20:04.615Z,74.33
2022-08-27T10:21:19.092Z,74.19
2022-08-27T10:22:25.887Z,74.05
2022-08-27T10:23:49.851Z,73.60
2022-08-27T10:25:09.095Z,73.81
2022-08-27T10:26:21.747Z,73.76
2022-08-27T10:27:55.743Z,74.05
2022-08-27T10:29:03.367Z,73.70
2022-08-27T10:30:08.074Z,73.64
2022-08-27T10:31:41.187Z,73.60
2022-08-27T10:32:52.972Z,73.53
2022-08-27T10:34:08.902Z,73.56
2022-08-27T10:35:20.080Z,73.71
2022-08-27T10:36:58.973Z,73.95
2022-08-27T10:38:19.535Z,74.17
2022-08-27T10:39:40.276Z,74.31
2022-08-27T10:41:21.367Z,74.56
2022-08-27T10:42:32.690Z,74.96
2022-08-27T10:43:50.985Z,74.93
2022-08-27T10:45:12.521Z,75.58
2022-08-27T10:46:26.870Z,75.53
2022-08-27T10:47:55.422Z,74.88
2022-08-27T10:49:00.124Z,75.31
2022-08-27T10:50:17.807Z,75.01
2022-08-27T10:51:38.699Z,75.23
2022-08-27T10:53:00.501Z,75.54
2022-08-27T10:54:19.040Z,75.46
2022-08-27T10:55:26.941Z,75.60
2022-08-27T10:56:40.348Z,74.24
2022-08-27T10:58:01.898Z,74.52
2022-08-27T10:59:29.682Z,74.72
2022-08-27T11:00:42.953Z,75.24
2022-08-27T11:01:53.535Z,75.09
2022-08-27T11:03:02.749Z,74.65
2022-08-27T11:04:13.341Z,75.09
2022-08-27T11:05:20.592Z,75.08
2022-08-27T11:06:34.930Z,73.69
2022-08-27T11:07:42.204Z,74.30
2022-08-27T11:08:53.777Z,73.33
2022-08-27T11:10:21.110Z,73.10
2022-08-27T11:12:53.982Z,74.39
2022-08-27T11:14:01.272Z,74.45
2022-08-27T11:15:36.866Z,74.29
2022-08-27T11:16:48.014Z,74.35
2022-08-27T11:18:44.440Z,73.76
2022-08-27T11:19:54.332Z,73.61
2022-08-27T11:21:13.333Z,74.32
2022-08-27T11:22:26.095Z,74.04
2022-08-27T11:23:40.523Z,73.09
2022-08-27T11:24:52.944Z,72.70
2022-08-27T11:26:02.620Z,73.10
2022-08-27T11:27:07.712Z,73.31
2022-08-27T11:28:11.718Z,74.23
2022-08-27T11:29:23.460Z,74.54
2022-08-27T11:30:42.032Z,75.38
2022-08-27T11:32:23.061Z,74.92
2022-08-27T11:33:46.194Z,74.75
2022-08-27T11:35:00.368Z,73.43
2022-08-27T11:36:16.979Z,72.62
2022-08-27T11:37:59.684Z,72.21
2022-08-27T11:39:36.786Z,72.28
2022-08-27T11:41:11.882Z,71.93
2022-08-27T11:42:27.482Z,72.36
2022-08-27T11:43:33.547Z,73.47
2022-08-27T11:44:43.689Z,73.22
2022-08-27T11:45:58.920Z,73.55
2022-08-27T11:47:20.731Z,73.51
2022-08-27T11:48:32.424Z,73.20
2022-08-27T11:49:48.984Z,72.72
2022-08-27T11:50:55.110Z,72.56
2022-08-27T11:52:07.354Z,71.98
2022-08-27T11:53:08.891Z,71.17
2022-08-27T11:54:23.939Z,70.96
2022-08-27T11:55:27.662Z,70.64
2022-08-27T11:56:29.065Z,71.79
2022-08-27T11:57:33.710Z,70.96
2022-08-27T11:58:52.695Z,71.23
2022-08-27T11:59:55.809Z,70.77
2022-08-27T12:01:02.208Z,70.44
2022-08-27T12:02:35.449Z,70.73
2022-08-27T12:03:37.163Z,69.96
2022-08-27T12:04:41.968Z,70.32
2022-08-27T12:05:45.428Z,69.38
2022-08-27T12:07:02.142Z,69.50
2022-08-27T12:08:21.144Z,70.51
2022-08-27T12:09:23.920Z,69.56
2022-08-27T12:10:43.156Z,71.07
2022-08-27T12:12:05.904Z,71.05
2022-08-27T12:13:21.291Z,71.39
2022-08-27T12:14:41.852Z,70.10
2022-08-27T12:15:57.475Z,70.70
2022-08-27T12:17:08.787Z,69.83
2022-08-27T12:18:20.198Z,69.21
2022-08-27T12:19:58.863Z,69.31
2022-08-27T12:21:11.565Z,67.87
2022-08-27T12:22:59.306Z,69.87
2022-08-27T12:24:18.895Z,67.67
2022-08-27T12:25:22.178Z,67.14
2022-08-27T12:26:26.834Z,67.04
2022-08-27T12:27:34.495Z,66.61
2022-08-27T12:28:36.062Z,65.80
2022-08-27T12:29:47.822Z,66.17
2022-08-27T12:30:52.295Z,66.15
2022-08-27T12:32:00.891Z,66.32
2022-08-27T12:33:43.287Z,67.07
2022-08-27T12:34:54.530Z,66.11
2022-08-27T12:36:05.987Z,65.96
2022-08-27T12:37:08.037Z,65.68
2022-08-27T12:38:21.870Z,65.15
2022-08-27T12:39:28.761Z,66.39
2022-08-27T12:40:45.948Z,66.34
2022-08-27T12:41:50.330Z,67.03
2022-08-27T12:43:04.707Z,66.58
2022-08-27T12:44:12.636Z,65.34
2022-08-27T12:45:25.557Z,64.41
2022-08-27T12:46:29.773Z,64.50
2022-08-27T12:47:40.922Z,63.86
2022-08-27T12:48:58.022Z,64.04
2022-08-27T12:50:23.988Z,64.38
2022-08-27T12:51:27.514Z,63.86
2022-08-27T12:52:59.684Z,63.44
2022-08-27T12:54:28.906Z,62.21
2022-08-27T12:55:52.020Z,61.82
2022-08-27T12:56:59.595Z,61.45
2022-08-27T12:58:20.092Z,60.65
2022-08-27T12:59:33.316Z,62.76
2022-08-27T13:01:12.935Z,62.88
2022-08-27T13:02:46.433Z,63.15
2022-08-27T13:03:52.994Z,63.23
2022-08-27T13:04:54.717Z,63.07
2022-08-27T13:05:57.716Z,62.75
2022-08-27T13:06:59.753Z,62.27
2022-08-27T13:08:01.234Z,62.08
2022-08-27T13:09:07.211Z,61.40
2022-08-27T13:10:26.930Z,60.63
2022-08-27T13:11:34.686Z,60.21
2022-08-27T13:12:36.462Z,60.90
2022-08-27T13:13:37.966Z,61.36
2022-08-27T13:14:41.146Z,61.52
2022-08-27T13:15:47.072Z,61.36
2022-08-27T13:17:08.011Z,60.99
2022-08-27T13:18:11.758Z,60.14
2022-08-27T13:19:25.656Z,59.29
2022-08-27T13:20:27.667Z,58.42
2022-08-27T13:21:32.624Z,58.85
2022-08-27T13:22:40.076Z,56.82
2022-08-27T13:23:49.320Z,57.68
2022-08-27T13:24:54.601Z,57.58
2022-08-27T13:26:09.913Z,57.58
2022-08-27T13:27:11.941Z,57.89
2022-08-27T13:28:15.907Z,57.75
2022-08-27T13:29:17.620Z,58.31
2022-08-27T13:30:35.294Z,58.73
2022-08-27T13:31:38.444Z,58.45
2022-08-27T13:32:41.370Z,58.38
2022-08-27T13:33:44.358Z,58.47
2022-08-27T13:34:46.515Z,57.60
2022-08-27T13:35:48.140Z,57.28
2022-08-27T13:36:59.622Z,56.98
2022-08-27T13:38:03.752Z,58.17
2022-08-27T13:39:07.193Z,58.72
2022-08-27T13:40:09.567Z,58.77
2022-08-27T13:41:34.162Z,58.82
2022-08-27T13:42:41.465Z,58.28
2022-08-27T13:43:45.860Z,58.81
2022-08-27T13:44:48.472Z,58.59
2022-08-27T13:45:54.637Z,58.14
2022-08-27T13:47:02.479Z,58.47
2022-08-27T13:48:05.762Z,58.69
2022-08-27T13:49:15.681Z,57.98
2022-08-27T13:50:28.488Z,57.49
2022-08-27T13:51:33.604Z,56.93
2022-08-27T13:52:57.721Z,57.46
2022-08-27T13:54:15.722Z,58.47
2022-08-27T13:55:18.173Z,58.42
2022-08-27T13:56:57.345Z,58.60
2022-08-27T13:57:59.463Z,58.54
2022-08-27T13:59:30.325Z,57.72
2022-08-27T14:00:33.597Z,58.24
2022-08-27T14:01:35.793Z,58.22
2022-08-27T14:02:37.808Z,58.33
2022-08-27T14:03:55.654Z,57.54
2022-08-27T14:05:28.888Z,58.04
2022-08-27T14:06:41.368Z,57.42
2022-08-27T14:07:49.676Z,57.00
2022-08-27T14:08:51.129Z,56.75
2022-08-27T14:10:18.619Z,56.38
2022-08-27T14:11:25.757Z,56.63
2022-08-27T14:12:33.057Z,56.50
2022-08-27T14:13:41.204Z,54.21
2022-08-27T14:14:54.266Z,54.40
2022-08-27T14:15:59.210Z,54.78
2022-08-27T14:17:02.597Z,54.75
2022-08-27T14:18:08.182Z,54.83
2022-08-27T14:19:13.964Z,54.43
2022-08-27T14:20:18.393Z,55.35
2022-08-27T14:21:21.380Z,55.95